sensor_id;sensor_type;location;lat;lon;timestamp;P1;durP1;ratioP1;P2;durP2;ratioP2
76202;SDS011;64985;46.364;17.008;2023-02-15T00:00:25;46.28;;;18.67;;
76202;SDS011;64985;46.364;17.008;2023-02-15T00:03:27;44.33;;;17.77;;
76202;SDS011;64985;46.364;17.008;2023-02-15T00:06:30;40.50;;;18.13;;
76202;SDS011;64985;46.364;17.008;2023-02-15T00:09:33;43.70;;;18.30;;
76202;SDS011;64985;46.364;17.008;2023-02-15T00:12:35;45.22;;;19.00;;
76202;SDS011;64985;46.364;17.008;2023-02-15T00:15:37;43.20;;;18.63;;
76202;SDS011;64985;46.364;17.008;2023-02-15T00:18:39;50.92;;;23.77;;
76202;SDS011;64985;46.364;17.008;2023-02-15T00:21:42;52.38;;;23.10;;
76202;SDS011;64985;46.364;17.008;2023-02-15T00:24:44;56.83;;;23.23;;
76202;SDS011;64985;46.364;17.008;2023-02-15T00:27:46;53.67;;;24.42;;
76202;SDS011;64985;46.364;17.008;2023-02-15T00:30:49;54.50;;;23.25;;
76202;SDS011;64985;46.364;17.008;2023-02-15T00:33:51;62.33;;;28.58;;
76202;SDS011;64985;46.364;17.008;2023-02-15T00:36:53;52.28;;;24.63;;
76202;SDS011;64985;46.364;17.008;2023-02-15T00:39:55;63.70;;;27.13;;
76202;SDS011;64985;46.364;17.008;2023-02-15T00:42:57;61.03;;;29.17;;
76202;SDS011;64985;46.364;17.008;2023-02-15T00:46:00;58.22;;;25.80;;
76202;SDS011;64985;46.364;17.008;2023-02-15T00:49:04;61.95;;;27.75;;
76202;SDS011;64985;46.364;17.008;2023-02-15T00:52:07;67.78;;;30.48;;
76202;SDS011;64985;46.364;17.008;2023-02-15T00:55:09;70.18;;;32.17;;
76202;SDS011;64985;46.364;17.008;2023-02-15T00:58:11;61.45;;;27.65;;
76202;SDS011;64985;46.364;17.008;2023-02-15T01:01:16;60.67;;;26.55;;
76202;SDS011;64985;46.364;17.008;2023-02-15T01:04:20;56.25;;;25.35;;
76202;SDS011;64985;46.364;17.008;2023-02-15T01:07:22;55.17;;;24.92;;
76202;SDS011;64985;46.364;17.008;2023-02-15T01:10:24;60.53;;;27.67;;
76202;SDS011;64985;46.364;17.008;2023-02-15T01:13:27;70.38;;;31.40;;
76202;SDS011;64985;46.364;17.008;2023-02-15T01:16:29;64.32;;;26.63;;
76202;SDS011;64985;46.364;17.008;2023-02-15T01:19:32;63.97;;;26.45;;
76202;SDS011;64985;46.364;17.008;2023-02-15T01:22:34;50.58;;;22.40;;
76202;SDS011;64985;46.364;17.008;2023-02-15T01:25:36;50.45;;;21.35;;
76202;SDS011;64985;46.364;17.008;2023-02-15T01:28:40;50.85;;;23.38;;
76202;SDS011;64985;46.364;17.008;2023-02-15T01:31:42;43.17;;;19.85;;
76202;SDS011;64985;46.364;17.008;2023-02-15T01:34:45;46.28;;;19.58;;
76202;SDS011;64985;46.364;17.008;2023-02-15T01:37:47;45.35;;;19.08;;
76202;SDS011;64985;46.364;17.008;2023-02-15T01:40:52;42.55;;;18.35;;
76202;SDS011;64985;46.364;17.008;2023-02-15T01:43:57;40.25;;;17.90;;
76202;SDS011;64985;46.364;17.008;2023-02-15T01:47:00;41.53;;;18.38;;
76202;SDS011;64985;46.364;17.008;2023-02-15T01:50:06;43.17;;;19.13;;
76202;SDS011;64985;46.364;17.008;2023-02-15T01:56:23;65.57;;;27.58;;
76202;SDS011;64985;46.364;17.008;2023-02-15T01:59:29;57.05;;;24.95;;
76202;SDS011;64985;46.364;17.008;2023-02-15T02:02:35;51.80;;;23.08;;
76202;SDS011;64985;46.364;17.008;2023-02-15T02:05:37;41.55;;;17.95;;
76202;SDS011;64985;46.364;17.008;2023-02-15T02:08:41;48.05;;;20.27;;
76202;SDS011;64985;46.364;17.008;2023-02-15T02:11:44;41.72;;;19.25;;
76202;SDS011;64985;46.364;17.008;2023-02-15T02:14:49;43.00;;;18.95;;
76202;SDS011;64985;46.364;17.008;2023-02-15T02:24:42;38.78;;;18.02;;
76202;SDS011;64985;46.364;17.008;2023-02-15T02:28:40;45.80;;;18.13;;
76202;SDS011;64985;46.364;17.008;2023-02-15T02:38:27;38.72;;;17.83;;
76202;SDS011;64985;46.364;17.008;2023-02-15T02:48:21;38.35;;;17.92;;
76202;SDS011;64985;46.364;17.008;2023-02-15T02:51:27;39.78;;;17.50;;
76202;SDS011;64985;46.364;17.008;2023-02-15T02:54:29;39.22;;;18.00;;
76202;SDS011;64985;46.364;17.008;2023-02-15T02:57:34;39.08;;;17.40;;
76202;SDS011;64985;46.364;17.008;2023-02-15T03:03:52;39.00;;;18.48;;
76202;SDS011;64985;46.364;17.008;2023-02-15T03:07:03;44.17;;;19.52;;
76202;SDS011;64985;46.364;17.008;2023-02-15T03:10:08;40.67;;;18.48;;
76202;SDS011;64985;46.364;17.008;2023-02-15T03:13:12;42.90;;;18.30;;
76202;SDS011;64985;46.364;17.008;2023-02-15T03:16:14;43.85;;;19.58;;
76202;SDS011;64985;46.364;17.008;2023-02-15T03:19:29;42.97;;;19.35;;
76202;SDS011;64985;46.364;17.008;2023-02-15T03:22:35;43.13;;;18.30;;
76202;SDS011;64985;46.364;17.008;2023-02-15T03:25:44;46.58;;;21.33;;
76202;SDS011;64985;46.364;17.008;2023-02-15T03:28:52;43.03;;;20.20;;
76202;SDS011;64985;46.364;17.008;2023-02-15T03:32:00;40.38;;;17.83;;
76202;SDS011;64985;46.364;17.008;2023-02-15T03:35:06;39.80;;;18.73;;
76202;SDS011;64985;46.364;17.008;2023-02-15T03:38:09;40.72;;;18.73;;
76202;SDS011;64985;46.364;17.008;2023-02-15T03:41:14;43.70;;;18.73;;
76202;SDS011;64985;46.364;17.008;2023-02-15T03:44:30;42.70;;;19.40;;
76202;SDS011;64985;46.364;17.008;2023-02-15T03:47:43;38.17;;;17.73;;
76202;SDS011;64985;46.364;17.008;2023-02-15T03:50:48;40.03;;;18.67;;
76202;SDS011;64985;46.364;17.008;2023-02-15T03:54:12;44.50;;;19.70;;
76202;SDS011;64985;46.364;17.008;2023-02-15T03:57:39;44.63;;;20.45;;
76202;SDS011;64985;46.364;17.008;2023-02-15T04:01:09;42.20;;;18.15;;
76202;SDS011;64985;46.364;17.008;2023-02-15T04:04:36;46.15;;;18.90;;
76202;SDS011;64985;46.364;17.008;2023-02-15T04:07:48;42.35;;;16.90;;
76202;SDS011;64985;46.364;17.008;2023-02-15T04:10:50;40.13;;;18.05;;
76202;SDS011;64985;46.364;17.008;2023-02-15T04:13:56;40.90;;;17.88;;
76202;SDS011;64985;46.364;17.008;2023-02-15T04:16:59;44.42;;;18.42;;
76202;SDS011;64985;46.364;17.008;2023-02-15T04:20:01;45.03;;;19.02;;
76202;SDS011;64985;46.364;17.008;2023-02-15T04:23:22;46.67;;;18.23;;
76202;SDS011;64985;46.364;17.008;2023-02-15T04:26:42;43.88;;;17.83;;
76202;SDS011;64985;46.364;17.008;2023-02-15T04:29:45;44.63;;;18.88;;
76202;SDS011;64985;46.364;17.008;2023-02-15T04:32:47;45.05;;;18.52;;
76202;SDS011;64985;46.364;17.008;2023-02-15T04:35:49;42.47;;;17.73;;
76202;SDS011;64985;46.364;17.008;2023-02-15T04:38:51;40.20;;;17.80;;
76202;SDS011;64985;46.364;17.008;2023-02-15T04:41:53;40.70;;;18.25;;
76202;SDS011;64985;46.364;17.008;2023-02-15T04:44:55;43.13;;;19.00;;
76202;SDS011;64985;46.364;17.008;2023-02-15T04:47:58;45.65;;;20.13;;
76202;SDS011;64985;46.364;17.008;2023-02-15T04:51:04;56.50;;;23.52;;
76202;SDS011;64985;46.364;17.008;2023-02-15T04:54:10;58.53;;;23.60;;
76202;SDS011;64985;46.364;17.008;2023-02-15T04:57:13;54.83;;;24.00;;
76202;SDS011;64985;46.364;17.008;2023-02-15T05:00:15;52.72;;;23.27;;
76202;SDS011;64985;46.364;17.008;2023-02-15T05:03:18;61.55;;;25.15;;
76202;SDS011;64985;46.364;17.008;2023-02-15T05:06:20;53.03;;;21.27;;
76202;SDS011;64985;46.364;17.008;2023-02-15T05:09:22;55.72;;;22.35;;
76202;SDS011;64985;46.364;17.008;2023-02-15T05:12:25;52.63;;;23.13;;
76202;SDS011;64985;46.364;17.008;2023-02-15T05:15:27;52.22;;;21.83;;
76202;SDS011;64985;46.364;17.008;2023-02-15T05:18:29;53.58;;;22.92;;
76202;SDS011;64985;46.364;17.008;2023-02-15T05:21:32;49.85;;;20.70;;
76202;SDS011;64985;46.364;17.008;2023-02-15T05:24:34;46.88;;;21.13;;
76202;SDS011;64985;46.364;17.008;2023-02-15T05:27:55;47.78;;;20.27;;
76202;SDS011;64985;46.364;17.008;2023-02-15T05:31:16;48.67;;;21.05;;
76202;SDS011;64985;46.364;17.008;2023-02-15T05:34:20;53.38;;;21.58;;
76202;SDS011;64985;46.364;17.008;2023-02-15T05:37:22;46.80;;;20.90;;
76202;SDS011;64985;46.364;17.008;2023-02-15T05:40:24;46.85;;;19.15;;
76202;SDS011;64985;46.364;17.008;2023-02-15T05:43:27;47.58;;;20.40;;
76202;SDS011;64985;46.364;17.008;2023-02-15T05:46:29;48.20;;;21.27;;
76202;SDS011;64985;46.364;17.008;2023-02-15T05:49:31;78.65;;;33.58;;
76202;SDS011;64985;46.364;17.008;2023-02-15T05:52:34;93.15;;;36.33;;
76202;SDS011;64985;46.364;17.008;2023-02-15T05:55:39;52.78;;;23.40;;
76202;SDS011;64985;46.364;17.008;2023-02-15T05:58:43;55.80;;;24.00;;
76202;SDS011;64985;46.364;17.008;2023-02-15T06:01:45;60.03;;;27.55;;
76202;SDS011;64985;46.364;17.008;2023-02-15T06:04:47;60.83;;;24.98;;
76202;SDS011;64985;46.364;17.008;2023-02-15T06:07:49;55.65;;;23.50;;
76202;SDS011;64985;46.364;17.008;2023-02-15T06:10:51;57.13;;;24.35;;
76202;SDS011;64985;46.364;17.008;2023-02-15T06:13:53;61.47;;;27.40;;
76202;SDS011;64985;46.364;17.008;2023-02-15T06:16:55;60.20;;;25.48;;
76202;SDS011;64985;46.364;17.008;2023-02-15T06:19:58;61.35;;;28.20;;
76202;SDS011;64985;46.364;17.008;2023-02-15T06:23:00;68.30;;;28.20;;
76202;SDS011;64985;46.364;17.008;2023-02-15T06:26:02;72.53;;;32.00;;
76202;SDS011;64985;46.364;17.008;2023-02-15T06:29:05;80.35;;;33.55;;
76202;SDS011;64985;46.364;17.008;2023-02-15T06:32:07;63.83;;;26.58;;
76202;SDS011;64985;46.364;17.008;2023-02-15T06:35:09;70.28;;;29.15;;
76202;SDS011;64985;46.364;17.008;2023-02-15T06:38:11;66.68;;;28.67;;
76202;SDS011;64985;46.364;17.008;2023-02-15T06:41:13;78.20;;;32.55;;
76202;SDS011;64985;46.364;17.008;2023-02-15T06:44:15;77.68;;;31.08;;
76202;SDS011;64985;46.364;17.008;2023-02-15T06:47:18;76.45;;;30.33;;
76202;SDS011;64985;46.364;17.008;2023-02-15T06:50:20;70.55;;;29.52;;
76202;SDS011;64985;46.364;17.008;2023-02-15T06:53:22;68.68;;;27.73;;
76202;SDS011;64985;46.364;17.008;2023-02-15T06:56:24;72.32;;;29.30;;
76202;SDS011;64985;46.364;17.008;2023-02-15T06:59:26;63.50;;;24.85;;
76202;SDS011;64985;46.364;17.008;2023-02-15T07:02:28;61.58;;;25.23;;
76202;SDS011;64985;46.364;17.008;2023-02-15T07:05:32;58.72;;;24.40;;
76202;SDS011;64985;46.364;17.008;2023-02-15T07:08:35;57.03;;;24.85;;
76202;SDS011;64985;46.364;17.008;2023-02-15T07:11:38;54.67;;;22.38;;
76202;SDS011;64985;46.364;17.008;2023-02-15T07:14:58;53.53;;;22.55;;
76202;SDS011;64985;46.364;17.008;2023-02-15T07:18:01;54.42;;;23.20;;
76202;SDS011;64985;46.364;17.008;2023-02-15T07:21:03;62.78;;;25.65;;
76202;SDS011;64985;46.364;17.008;2023-02-15T07:24:06;80.03;;;35.03;;
76202;SDS011;64985;46.364;17.008;2023-02-15T07:27:08;63.25;;;26.60;;
76202;SDS011;64985;46.364;17.008;2023-02-15T07:30:15;53.80;;;23.50;;
76202;SDS011;64985;46.364;17.008;2023-02-15T07:33:18;50.88;;;23.30;;
76202;SDS011;64985;46.364;17.008;2023-02-15T07:36:28;71.20;;;30.58;;
76202;SDS011;64985;46.364;17.008;2023-02-15T07:39:31;105.88;;;44.45;;
76202;SDS011;64985;46.364;17.008;2023-02-15T07:42:33;59.53;;;27.00;;
76202;SDS011;64985;46.364;17.008;2023-02-15T07:45:35;61.50;;;28.65;;
76202;SDS011;64985;46.364;17.008;2023-02-15T07:48:38;71.47;;;32.63;;
76202;SDS011;64985;46.364;17.008;2023-02-15T07:51:41;67.40;;;28.58;;
76202;SDS011;64985;46.364;17.008;2023-02-15T07:54:44;83.85;;;39.38;;
76202;SDS011;64985;46.364;17.008;2023-02-15T07:57:47;54.42;;;24.70;;
76202;SDS011;64985;46.364;17.008;2023-02-15T08:00:50;50.53;;;22.60;;
76202;SDS011;64985;46.364;17.008;2023-02-15T08:03:58;57.83;;;27.40;;
76202;SDS011;64985;46.364;17.008;2023-02-15T08:07:01;54.60;;;26.27;;
76202;SDS011;64985;46.364;17.008;2023-02-15T08:10:03;52.40;;;24.42;;
76202;SDS011;64985;46.364;17.008;2023-02-15T08:13:06;51.17;;;23.85;;
76202;SDS011;64985;46.364;17.008;2023-02-15T08:16:08;49.72;;;22.40;;
76202;SDS011;64985;46.364;17.008;2023-02-15T08:19:24;48.28;;;22.13;;
76202;SDS011;64985;46.364;17.008;2023-02-15T08:22:27;51.40;;;24.58;;
76202;SDS011;64985;46.364;17.008;2023-02-15T08:25:30;57.88;;;26.65;;
76202;SDS011;64985;46.364;17.008;2023-02-15T08:28:33;51.72;;;23.08;;
76202;SDS011;64985;46.364;17.008;2023-02-15T08:31:35;53.10;;;24.30;;
76202;SDS011;64985;46.364;17.008;2023-02-15T08:34:40;62.15;;;26.85;;
76202;SDS011;64985;46.364;17.008;2023-02-15T08:37:43;43.83;;;21.80;;
76202;SDS011;64985;46.364;17.008;2023-02-15T08:40:46;50.03;;;22.30;;
76202;SDS011;64985;46.364;17.008;2023-02-15T08:43:49;45.80;;;21.60;;
76202;SDS011;64985;46.364;17.008;2023-02-15T08:46:56;44.72;;;21.35;;
76202;SDS011;64985;46.364;17.008;2023-02-15T08:50:04;41.85;;;21.15;;
76202;SDS011;64985;46.364;17.008;2023-02-15T08:53:07;43.15;;;20.85;;
76202;SDS011;64985;46.364;17.008;2023-02-15T08:56:09;48.92;;;23.20;;
76202;SDS011;64985;46.364;17.008;2023-02-15T08:59:13;52.35;;;24.65;;
76202;SDS011;64985;46.364;17.008;2023-02-15T09:02:17;53.88;;;26.58;;
76202;SDS011;64985;46.364;17.008;2023-02-15T09:05:20;47.35;;;23.92;;
76202;SDS011;64985;46.364;17.008;2023-02-15T09:08:22;45.08;;;22.98;;
76202;SDS011;64985;46.364;17.008;2023-02-15T09:11:28;40.95;;;20.15;;
76202;SDS011;64985;46.364;17.008;2023-02-15T09:14:32;44.95;;;21.70;;
76202;SDS011;64985;46.364;17.008;2023-02-15T09:17:34;41.95;;;21.23;;
76202;SDS011;64985;46.364;17.008;2023-02-15T09:20:36;41.10;;;20.63;;
76202;SDS011;64985;46.364;17.008;2023-02-15T09:23:39;43.75;;;21.65;;
76202;SDS011;64985;46.364;17.008;2023-02-15T09:26:46;44.15;;;21.38;;
76202;SDS011;64985;46.364;17.008;2023-02-15T09:29:49;43.50;;;20.83;;
76202;SDS011;64985;46.364;17.008;2023-02-15T09:32:51;40.17;;;20.52;;
76202;SDS011;64985;46.364;17.008;2023-02-15T09:35:53;43.35;;;21.40;;
76202;SDS011;64985;46.364;17.008;2023-02-15T09:39:00;46.13;;;23.95;;
76202;SDS011;64985;46.364;17.008;2023-02-15T09:42:20;40.50;;;20.40;;
76202;SDS011;64985;46.364;17.008;2023-02-15T09:45:42;41.97;;;21.33;;
76202;SDS011;64985;46.364;17.008;2023-02-15T09:53:06;43.28;;;21.48;;
76202;SDS011;64985;46.364;17.008;2023-02-15T10:03:03;39.70;;;21.95;;
76202;SDS011;64985;46.364;17.008;2023-02-15T10:06:17;47.50;;;24.73;;
76202;SDS011;64985;46.364;17.008;2023-02-15T10:13:37;40.60;;;21.98;;
76202;SDS011;64985;46.364;17.008;2023-02-15T10:26:51;37.60;;;18.10;;
76202;SDS011;64985;46.364;17.008;2023-02-15T10:33:32;48.17;;;24.50;;
76202;SDS011;64985;46.364;17.008;2023-02-15T10:47:00;42.53;;;22.77;;
76202;SDS011;64985;46.364;17.008;2023-02-15T10:57:03;38.25;;;20.23;;
76202;SDS011;64985;46.364;17.008;2023-02-15T11:00:23;35.63;;;19.58;;
76202;SDS011;64985;46.364;17.008;2023-02-15T11:03:35;34.75;;;19.33;;
76202;SDS011;64985;46.364;17.008;2023-02-15T11:06:46;35.65;;;20.45;;
76202;SDS011;64985;46.364;17.008;2023-02-15T11:09:56;38.08;;;20.23;;
76202;SDS011;64985;46.364;17.008;2023-02-15T11:13:25;35.70;;;19.75;;
76202;SDS011;64985;46.364;17.008;2023-02-15T11:16:36;42.22;;;22.33;;
76202;SDS011;64985;46.364;17.008;2023-02-15T11:19:49;43.40;;;24.98;;
76202;SDS011;64985;46.364;17.008;2023-02-15T11:22:53;42.95;;;22.65;;
76202;SDS011;64985;46.364;17.008;2023-02-15T11:25:57;37.80;;;20.83;;
76202;SDS011;64985;46.364;17.008;2023-02-15T11:29:25;41.72;;;21.95;;
76202;SDS011;64985;46.364;17.008;2023-02-15T11:32:37;35.95;;;20.77;;
76202;SDS011;64985;46.364;17.008;2023-02-15T11:35:57;38.67;;;20.92;;
76202;SDS011;64985;46.364;17.008;2023-02-15T11:39:11;42.63;;;22.75;;
76202;SDS011;64985;46.364;17.008;2023-02-15T11:42:18;37.85;;;19.00;;
76202;SDS011;64985;46.364;17.008;2023-02-15T11:48:31;33.20;;;18.77;;
76202;SDS011;64985;46.364;17.008;2023-02-15T11:51:34;31.95;;;19.30;;
76202;SDS011;64985;46.364;17.008;2023-02-15T11:54:39;34.35;;;20.02;;
76202;SDS011;64985;46.364;17.008;2023-02-15T12:01:23;63.50;;;34.50;;
76202;SDS011;64985;46.364;17.008;2023-02-15T12:04:32;37.78;;;21.63;;
76202;SDS011;64985;46.364;17.008;2023-02-15T12:10:57;37.20;;;20.65;;
76202;SDS011;64985;46.364;17.008;2023-02-15T12:14:05;34.78;;;19.35;;
76202;SDS011;64985;46.364;17.008;2023-02-15T12:17:11;36.25;;;21.52;;
76202;SDS011;64985;46.364;17.008;2023-02-15T12:23:17;33.60;;;19.75;;
76202;SDS011;64985;46.364;17.008;2023-02-15T12:26:27;32.83;;;20.05;;
76202;SDS011;64985;46.364;17.008;2023-02-15T12:29:35;33.00;;;20.23;;
76202;SDS011;64985;46.364;17.008;2023-02-15T12:32:47;34.00;;;19.77;;
76202;SDS011;64985;46.364;17.008;2023-02-15T12:36:18;35.05;;;20.65;;
76202;SDS011;64985;46.364;17.008;2023-02-15T12:39:24;40.60;;;23.77;;
76202;SDS011;64985;46.364;17.008;2023-02-15T12:42:40;45.05;;;25.75;;
76202;SDS011;64985;46.364;17.008;2023-02-15T12:45:44;32.58;;;19.60;;
76202;SDS011;64985;46.364;17.008;2023-02-15T12:48:47;35.13;;;21.88;;
76202;SDS011;64985;46.364;17.008;2023-02-15T12:55:24;36.08;;;20.65;;
76202;SDS011;64985;46.364;17.008;2023-02-15T12:58:32;35.45;;;19.75;;
76202;SDS011;64985;46.364;17.008;2023-02-15T13:01:35;33.60;;;20.23;;
76202;SDS011;64985;46.364;17.008;2023-02-15T13:04:46;38.92;;;21.92;;
76202;SDS011;64985;46.364;17.008;2023-02-15T13:07:54;37.10;;;20.98;;
76202;SDS011;64985;46.364;17.008;2023-02-15T13:11:00;34.40;;;19.70;;
76202;SDS011;64985;46.364;17.008;2023-02-15T13:14:15;31.13;;;18.50;;
76202;SDS011;64985;46.364;17.008;2023-02-15T13:17:23;32.95;;;19.85;;
76202;SDS011;64985;46.364;17.008;2023-02-15T13:20:30;35.63;;;21.38;;
76202;SDS011;64985;46.364;17.008;2023-02-15T13:23:35;33.80;;;20.73;;
76202;SDS011;64985;46.364;17.008;2023-02-15T13:26:39;36.50;;;20.95;;
76202;SDS011;64985;46.364;17.008;2023-02-15T13:30:11;33.78;;;20.20;;
76202;SDS011;64985;46.364;17.008;2023-02-15T13:33:25;31.67;;;19.08;;
76202;SDS011;64985;46.364;17.008;2023-02-15T13:40:24;30.70;;;18.80;;
76202;SDS011;64985;46.364;17.008;2023-02-15T13:47:50;36.38;;;18.40;;
76202;SDS011;64985;46.364;17.008;2023-02-15T13:51:13;32.03;;;19.55;;
76202;SDS011;64985;46.364;17.008;2023-02-15T13:54:36;36.00;;;19.88;;
76202;SDS011;64985;46.364;17.008;2023-02-15T14:01:39;31.42;;;19.08;;
76202;SDS011;64985;46.364;17.008;2023-02-15T14:05:05;31.08;;;19.48;;
76202;SDS011;64985;46.364;17.008;2023-02-15T14:08:38;31.73;;;18.88;;
76202;SDS011;64985;46.364;17.008;2023-02-15T14:21:59;32.28;;;18.80;;
76202;SDS011;64985;46.364;17.008;2023-02-15T14:31:43;30.48;;;18.83;;
76202;SDS011;64985;46.364;17.008;2023-02-15T14:34:49;30.83;;;18.85;;
76202;SDS011;64985;46.364;17.008;2023-02-15T14:48:31;31.42;;;18.67;;
76202;SDS011;64985;46.364;17.008;2023-02-15T14:57:56;30.75;;;18.40;;
76202;SDS011;64985;46.364;17.008;2023-02-15T15:01:09;31.85;;;18.88;;
76202;SDS011;64985;46.364;17.008;2023-02-15T15:04:13;30.15;;;18.30;;
76202;SDS011;64985;46.364;17.008;2023-02-15T15:07:26;29.63;;;17.90;;
76202;SDS011;64985;46.364;17.008;2023-02-15T15:10:39;30.77;;;19.23;;
76202;SDS011;64985;46.364;17.008;2023-02-15T15:13:56;31.08;;;18.80;;
76202;SDS011;64985;46.364;17.008;2023-02-15T15:17:02;31.65;;;19.05;;
76202;SDS011;64985;46.364;17.008;2023-02-15T15:23:38;35.50;;;19.60;;
76202;SDS011;64985;46.364;17.008;2023-02-15T15:26:42;37.17;;;20.88;;
76202;SDS011;64985;46.364;17.008;2023-02-15T15:29:50;31.05;;;18.30;;
76202;SDS011;64985;46.364;17.008;2023-02-15T15:46:08;34.65;;;18.33;;
76202;SDS011;64985;46.364;17.008;2023-02-15T15:49:21;32.72;;;18.65;;
76202;SDS011;64985;46.364;17.008;2023-02-15T15:52:28;33.00;;;18.52;;
76202;SDS011;64985;46.364;17.008;2023-02-15T15:55:33;31.27;;;18.88;;
76202;SDS011;64985;46.364;17.008;2023-02-15T15:58:41;33.50;;;18.88;;
76202;SDS011;64985;46.364;17.008;2023-02-15T16:01:48;30.75;;;17.52;;
76202;SDS011;64985;46.364;17.008;2023-02-15T16:04:52;31.92;;;17.85;;
76202;SDS011;64985;46.364;17.008;2023-02-15T16:07:55;31.92;;;18.83;;
76202;SDS011;64985;46.364;17.008;2023-02-15T16:10:58;34.10;;;18.25;;
76202;SDS011;64985;46.364;17.008;2023-02-15T16:14:02;32.83;;;17.65;;
76202;SDS011;64985;46.364;17.008;2023-02-15T16:17:06;30.85;;;17.73;;
76202;SDS011;64985;46.364;17.008;2023-02-15T16:20:16;32.58;;;17.63;;
76202;SDS011;64985;46.364;17.008;2023-02-15T16:33:23;35.00;;;16.98;;
76202;SDS011;64985;46.364;17.008;2023-02-15T16:36:38;37.00;;;17.35;;
76202;SDS011;64985;46.364;17.008;2023-02-15T16:39:41;30.70;;;17.17;;
76202;SDS011;64985;46.364;17.008;2023-02-15T16:42:45;37.63;;;19.60;;
76202;SDS011;64985;46.364;17.008;2023-02-15T16:45:50;35.88;;;18.15;;
76202;SDS011;64985;46.364;17.008;2023-02-15T16:52:34;43.17;;;22.73;;
76202;SDS011;64985;46.364;17.008;2023-02-15T16:55:38;42.03;;;22.13;;
76202;SDS011;64985;46.364;17.008;2023-02-15T16:58:44;41.45;;;21.35;;
76202;SDS011;64985;46.364;17.008;2023-02-15T17:01:56;36.47;;;17.27;;
76202;SDS011;64985;46.364;17.008;2023-02-15T17:05:20;38.60;;;18.42;;
76202;SDS011;64985;46.364;17.008;2023-02-15T17:08:34;37.80;;;18.80;;
76202;SDS011;64985;46.364;17.008;2023-02-15T17:11:56;38.65;;;18.70;;
76202;SDS011;64985;46.364;17.008;2023-02-15T17:15:01;69.93;;;31.88;;
76202;SDS011;64985;46.364;17.008;2023-02-15T17:18:50;43.28;;;20.05;;
76202;SDS011;64985;46.364;17.008;2023-02-15T17:21:49;62.17;;;29.13;;
76202;SDS011;64985;46.364;17.008;2023-02-15T17:24:59;51.05;;;22.23;;
76202;SDS011;64985;46.364;17.008;2023-02-15T17:28:06;41.47;;;18.63;;
76202;SDS011;64985;46.364;17.008;2023-02-15T17:31:20;40.50;;;18.70;;
76202;SDS011;64985;46.364;17.008;2023-02-15T17:44:32;81.40;;;33.53;;
76202;SDS011;64985;46.364;17.008;2023-02-15T17:47:35;68.97;;;29.98;;
76202;SDS011;64985;46.364;17.008;2023-02-15T17:50:40;73.20;;;29.80;;
76202;SDS011;64985;46.364;17.008;2023-02-15T17:53:43;70.60;;;31.15;;
76202;SDS011;64985;46.364;17.008;2023-02-15T17:57:12;72.00;;;28.63;;
76202;SDS011;64985;46.364;17.008;2023-02-15T18:00:17;74.60;;;30.50;;
76202;SDS011;64985;46.364;17.008;2023-02-15T18:07:08;52.15;;;22.13;;
76202;SDS011;64985;46.364;17.008;2023-02-15T18:10:39;47.35;;;20.15;;
76202;SDS011;64985;46.364;17.008;2023-02-15T18:14:07;45.10;;;19.38;;
76202;SDS011;64985;46.364;17.008;2023-02-15T18:17:13;51.42;;;19.13;;
76202;SDS011;64985;46.364;17.008;2023-02-15T18:20:24;45.55;;;19.58;;
76202;SDS011;64985;46.364;17.008;2023-02-15T18:23:32;42.72;;;19.25;;
76202;SDS011;64985;46.364;17.008;2023-02-15T18:26:38;41.92;;;18.88;;
76202;SDS011;64985;46.364;17.008;2023-02-15T18:29:47;44.08;;;17.88;;
76202;SDS011;64985;46.364;17.008;2023-02-15T18:32:51;38.25;;;16.60;;
76202;SDS011;64985;46.364;17.008;2023-02-15T18:35:59;39.20;;;16.48;;
76202;SDS011;64985;46.364;17.008;2023-02-15T18:39:05;38.63;;;15.90;;
76202;SDS011;64985;46.364;17.008;2023-02-15T18:42:36;39.85;;;17.35;;
76202;SDS011;64985;46.364;17.008;2023-02-15T18:45:41;38.80;;;16.35;;
76202;SDS011;64985;46.364;17.008;2023-02-15T18:48:45;38.08;;;15.57;;
76202;SDS011;64985;46.364;17.008;2023-02-15T18:51:49;44.72;;;18.85;;
76202;SDS011;64985;46.364;17.008;2023-02-15T18:54:57;63.08;;;26.15;;
76202;SDS011;64985;46.364;17.008;2023-02-15T18:58:04;44.10;;;19.23;;
76202;SDS011;64985;46.364;17.008;2023-02-15T19:01:12;44.58;;;19.13;;
76202;SDS011;64985;46.364;17.008;2023-02-15T19:04:28;46.50;;;19.95;;
76202;SDS011;64985;46.364;17.008;2023-02-15T19:07:36;45.85;;;19.55;;
76202;SDS011;64985;46.364;17.008;2023-02-15T19:10:40;50.17;;;20.33;;
76202;SDS011;64985;46.364;17.008;2023-02-15T19:13:44;62.53;;;27.10;;
76202;SDS011;64985;46.364;17.008;2023-02-15T19:16:52;54.10;;;23.55;;
76202;SDS011;64985;46.364;17.008;2023-02-15T19:19:56;45.78;;;19.98;;
76202;SDS011;64985;46.364;17.008;2023-02-15T19:23:03;47.35;;;20.55;;
76202;SDS011;64985;46.364;17.008;2023-02-15T19:26:11;39.25;;;16.48;;
76202;SDS011;64985;46.364;17.008;2023-02-15T19:29:17;41.90;;;17.10;;
76202;SDS011;64985;46.364;17.008;2023-02-15T19:32:28;43.97;;;18.30;;
76202;SDS011;64985;46.364;17.008;2023-02-15T19:35:34;43.20;;;17.25;;
76202;SDS011;64985;46.364;17.008;2023-02-15T19:38:40;43.63;;;17.23;;
76202;SDS011;64985;46.364;17.008;2023-02-15T19:41:45;43.72;;;17.35;;
76202;SDS011;64985;46.364;17.008;2023-02-15T19:44:49;42.90;;;17.17;;
76202;SDS011;64985;46.364;17.008;2023-02-15T19:47:54;41.67;;;16.13;;
76202;SDS011;64985;46.364;17.008;2023-02-15T19:50:59;42.35;;;16.50;;
76202;SDS011;64985;46.364;17.008;2023-02-15T19:54:03;41.22;;;16.63;;
76202;SDS011;64985;46.364;17.008;2023-02-15T19:57:35;36.80;;;15.77;;
76202;SDS011;64985;46.364;17.008;2023-02-15T20:00:41;39.37;;;15.63;;
76202;SDS011;64985;46.364;17.008;2023-02-15T20:03:45;38.67;;;15.65;;
76202;SDS011;64985;46.364;17.008;2023-02-15T20:06:50;46.55;;;17.73;;
76202;SDS011;64985;46.364;17.008;2023-02-15T20:09:56;44.42;;;18.33;;
76202;SDS011;64985;46.364;17.008;2023-02-15T20:13:01;48.50;;;19.35;;
76202;SDS011;64985;46.364;17.008;2023-02-15T20:16:06;49.90;;;18.90;;
76202;SDS011;64985;46.364;17.008;2023-02-15T20:19:12;44.65;;;18.17;;
76202;SDS011;64985;46.364;17.008;2023-02-15T20:22:21;47.58;;;18.05;;
76202;SDS011;64985;46.364;17.008;2023-02-15T20:25:30;48.35;;;18.55;;
76202;SDS011;64985;46.364;17.008;2023-02-15T20:28:36;51.40;;;19.95;;
76202;SDS011;64985;46.364;17.008;2023-02-15T20:31:42;47.70;;;18.90;;
76202;SDS011;64985;46.364;17.008;2023-02-15T20:34:47;42.75;;;17.40;;
76202;SDS011;64985;46.364;17.008;2023-02-15T20:37:52;52.85;;;18.80;;
76202;SDS011;64985;46.364;17.008;2023-02-15T20:40:59;49.35;;;18.35;;
76202;SDS011;64985;46.364;17.008;2023-02-15T20:44:23;50.17;;;18.02;;
76202;SDS011;64985;46.364;17.008;2023-02-15T20:47:28;43.75;;;18.00;;
76202;SDS011;64985;46.364;17.008;2023-02-15T20:50:33;46.38;;;19.50;;
76202;SDS011;64985;46.364;17.008;2023-02-15T20:53:42;53.72;;;20.30;;
76202;SDS011;64985;46.364;17.008;2023-02-15T20:56:47;52.42;;;20.70;;